createdAt,value
2018-09-14T00:01:48.825Z,24.37
2018-09-14T00:04:18.172Z,24.00
2018-09-14T00:06:49.911Z,24.33
2018-09-14T00:09:19.396Z,27.07
2018-09-14T00:11:48.699Z,26.57
2018-09-14T00:14:17.875Z,25.97
2018-09-14T00:16:49.223Z,27.03
2018-09-14T00:19:18.313Z,26.27
2018-09-14T00:21:47.777Z,27.33
2018-09-14T00:24:16.925Z,25.47
2018-09-14T00:26:46.088Z,27.20
2018-09-14T00:29:15.871Z,27.13
2018-09-14T00:31:45.280Z,26.27
2018-09-14T00:34:14.380Z,30.13
2018-09-14T00:36:43.753Z,24.17
2018-09-14T00:39:13.796Z,25.93
2018-09-14T00:41:43.406Z,28.80
2018-09-14T00:44:13.162Z,25.80
2018-09-14T00:46:42.784Z,25.73
2018-09-14T00:49:11.978Z,24.63
2018-09-14T00:51:41.292Z,26.17
2018-09-14T00:54:10.800Z,27.30
2018-09-14T00:56:40.112Z,26.90
2018-09-14T00:59:09.212Z,25.17
2018-09-14T01:01:38.784Z,28.07
2018-09-14T01:04:07.869Z,27.73
2018-09-14T01:06:37.200Z,27.27
2018-09-14T01:09:13.354Z,26.93
2018-09-14T01:11:42.653Z,27.00
2018-09-14T01:14:11.835Z,26.03
2018-09-14T01:16:41.068Z,27.53
2018-09-14T01:19:10.131Z,32.90
2018-09-14T01:21:39.844Z,30.13
2018-09-14T01:24:09.152Z,30.60
2018-09-14T01:26:38.730Z,29.90
2018-09-14T01:29:08.061Z,28.80
2018-09-14T01:31:38.773Z,28.90
2018-09-14T01:34:08.187Z,30.57
2018-09-14T01:36:37.440Z,29.27
2018-09-14T01:39:09.766Z,30.77
2018-09-14T01:41:39.329Z,29.40
2018-09-14T01:44:09.068Z,27.83
2018-09-14T01:46:38.812Z,27.67
2018-09-14T01:49:08.267Z,30.13
2018-09-14T01:51:37.750Z,28.73
2018-09-14T01:54:06.913Z,27.57
2018-09-14T01:56:36.565Z,29.73
2018-09-14T01:59:06.336Z,26.57
2018-09-14T02:01:36.736Z,27.47
2018-09-14T02:04:06.330Z,28.97
2018-09-14T02:06:35.544Z,30.47
2018-09-14T02:09:06.218Z,26.27
2018-09-14T02:11:36.001Z,27.27
2018-09-14T02:14:05.404Z,28.37
2018-09-14T02:16:34.652Z,28.83
2018-09-14T02:19:06.165Z,32.23
2018-09-14T02:21:35.932Z,30.37
2018-09-14T02:24:05.276Z,35.43
2018-09-14T02:26:34.639Z,33.40
2018-09-14T02:29:04.707Z,37.23
2018-09-14T02:31:34.320Z,35.03
2018-09-14T02:34:03.794Z,37.77
2018-09-14T02:36:33.477Z,37.60
2018-09-14T02:39:03.421Z,38.80
2018-09-14T02:41:32.877Z,34.43
2018-09-14T02:44:02.024Z,33.10
2018-09-14T02:46:31.631Z,35.63
2018-09-14T02:49:00.901Z,34.93
2018-09-14T02:51:30.271Z,31.23
2018-09-14T02:53:59.769Z,34.07
2018-09-14T02:56:29.437Z,30.93
2018-09-14T02:58:58.562Z,34.60
2018-09-14T03:01:27.926Z,33.93
2018-09-14T03:03:57.544Z,34.07
2018-09-14T03:06:26.872Z,30.53
2018-09-14T03:08:55.980Z,30.83
2018-09-14T03:11:26.405Z,39.50
2018-09-14T03:13:55.664Z,30.50
2018-09-14T03:16:25.682Z,30.10
2018-09-14T03:18:55.056Z,31.43
2018-09-14T03:21:24.367Z,28.97
2018-09-14T03:23:53.494Z,29.67
2018-09-14T03:26:22.905Z,28.63
2018-09-14T03:28:52.764Z,29.50
2018-09-14T03:31:22.022Z,27.30
2018-09-14T03:33:52.479Z,29.07
2018-09-14T03:36:22.851Z,26.97
2018-09-14T03:38:52.026Z,26.43
2018-09-14T03:41:21.451Z,26.17
2018-09-14T03:43:50.961Z,26.87
2018-09-14T03:46:21.112Z,28.53
2018-09-14T03:48:50.236Z,29.00
2018-09-14T03:51:19.683Z,27.77
2018-09-14T03:53:48.829Z,29.40
2018-09-14T03:56:18.824Z,26.33
2018-09-14T03:58:48.060Z,29.27
2018-09-14T04:01:18.933Z,24.93
2018-09-14T04:03:49.073Z,28.80
2018-09-14T04:06:18.350Z,28.00
2018-09-14T04:08:47.507Z,27.57
2018-09-14T04:11:16.890Z,27.20
2018-09-14T04:13:46.124Z,28.17
2018-09-14T04:16:15.625Z,25.97
2018-09-14T04:18:53.889Z,25.87
2018-09-14T04:21:23.944Z,23.70
2018-09-14T04:23:53.392Z,28.30
2018-09-14T04:26:22.713Z,22.93
2018-09-14T04:28:52.102Z,27.77
2018-09-14T04:31:21.565Z,26.53
2018-09-14T04:33:50.693Z,27.27
2018-09-14T04:36:20.313Z,28.83
2018-09-14T04:38:49.520Z,25.70
2018-09-14T04:41:19.203Z,26.57
2018-09-14T04:43:48.491Z,26.13
2018-09-14T04:46:17.761Z,30.03
2018-09-14T04:48:47.485Z,25.63
2018-09-14T04:51:16.876Z,25.80
2018-09-14T04:53:46.069Z,25.77
2018-09-14T04:56:15.203Z,24.87
2018-09-14T04:58:44.727Z,25.17
2018-09-14T05:01:14.145Z,24.60
2018-09-14T05:03:43.304Z,25.50
2018-09-14T05:06:12.667Z,25.87
2018-09-14T05:08:41.863Z,24.03
2018-09-14T05:11:12.785Z,25.10
2018-09-14T05:13:42.029Z,27.67
2018-09-14T05:16:11.948Z,26.77
2018-09-14T05:18:41.261Z,25.80
2018-09-14T05:21:10.638Z,23.30
2018-09-14T05:23:40.875Z,27.53
2018-09-14T05:26:11.880Z,28.90
2018-09-14T05:28:58.593Z,24.00
2018-09-14T05:31:32.195Z,24.63
2018-09-14T05:34:02.124Z,24.10
2018-09-14T05:36:32.513Z,24.10
2018-09-14T05:39:02.129Z,26.17
2018-09-14T05:41:31.440Z,25.37
2018-09-14T05:44:10.388Z,25.37
2018-09-14T05:46:44.476Z,23.43
2018-09-14T05:49:17.561Z,26.15
2018-09-14T05:51:49.244Z,23.93
2018-09-14T05:54:20.838Z,26.80
2018-09-14T05:56:58.246Z,23.83
2018-09-14T05:59:38.078Z,24.00
2018-09-14T06:02:08.095Z,24.67
2018-09-14T06:04:38.067Z,25.03
2018-09-14T06:07:09.083Z,22.93
2018-09-14T06:09:38.963Z,21.77
2018-09-14T06:12:08.836Z,21.73
2018-09-14T06:14:39.259Z,27.55
2018-09-14T06:17:08.958Z,26.07
2018-09-14T06:19:38.643Z,23.53
2018-09-14T06:22:11.141Z,22.37
2018-09-14T06:24:40.548Z,21.43
2018-09-14T06:27:10.367Z,21.73
2018-09-14T06:29:39.776Z,23.47
2018-09-14T06:32:09.563Z,23.57
2018-09-14T06:34:39.598Z,23.20
2018-09-14T06:37:13.406Z,20.50
2018-09-14T06:39:45.889Z,22.47
2018-09-14T06:42:16.246Z,23.43
2018-09-14T06:44:46.830Z,23.07
2018-09-14T06:47:17.347Z,19.93
2018-09-14T06:49:49.226Z,19.43
2018-09-14T06:52:25.521Z,21.27
2018-09-14T06:54:59.699Z,21.30
2018-09-14T06:57:30.676Z,19.97
2018-09-14T07:00:01.959Z,19.00
2018-09-14T07:02:31.368Z,22.13
2018-09-14T07:05:02.116Z,19.63
2018-09-14T07:07:31.793Z,22.50
2018-09-14T07:10:02.400Z,23.77
2018-09-14T07:12:33.616Z,23.05
2018-09-14T07:15:03.156Z,22.93
2018-09-14T07:17:36.998Z,25.07
2018-09-14T07:20:06.330Z,23.30
2018-09-14T07:22:38.336Z,23.83
2018-09-14T07:25:14.010Z,24.07
2018-09-14T07:27:44.096Z,25.73
2018-09-14T07:30:19.662Z,27.13
2018-09-14T07:32:55.229Z,24.33
2018-09-14T07:35:27.197Z,31.77
2018-09-14T07:37:57.561Z,26.07
2018-09-14T07:40:29.720Z,33.70
2018-09-14T07:43:01.846Z,33.57
2018-09-14T07:45:34.114Z,30.70
2018-09-14T07:48:16.354Z,30.33
2018-09-14T07:50:54.471Z,30.60
2018-09-14T07:53:24.553Z,33.80
2018-09-14T07:56:03.241Z,36.07
2018-09-14T07:58:36.356Z,30.33
2018-09-14T08:01:14.768Z,33.57
2018-09-14T08:03:47.866Z,28.50
2018-09-14T08:06:27.575Z,26.93
2018-09-14T08:09:04.307Z,28.10
2018-09-14T08:12:12.413Z,32.03
2018-09-14T08:14:47.569Z,35.13
2018-09-14T08:17:23.232Z,33.90
2018-09-14T08:19:55.698Z,29.33
2018-09-14T08:22:25.365Z,31.23
2018-09-14T08:25:10.359Z,28.97
2018-09-14T08:27:43.339Z,32.00
2018-09-14T08:30:15.306Z,26.35
2018-09-14T08:32:45.413Z,27.62
2018-09-14T08:35:16.257Z,21.13
2018-09-14T08:37:47.458Z,23.98
2018-09-14T08:40:17.364Z,23.10
2018-09-14T08:42:47.010Z,20.57
2018-09-14T08:45:18.581Z,19.25
2018-09-14T08:47:48.344Z,19.60
2018-09-14T08:50:25.418Z,16.93
2018-09-14T08:52:56.931Z,21.97
2018-09-14T08:55:31.360Z,20.63
2018-09-14T08:58:02.377Z,23.03
2018-09-14T09:00:34.567Z,19.10
2018-09-14T09:03:11.635Z,20.53
2018-09-14T09:05:41.562Z,17.93
2018-09-14T09:08:14.522Z,19.57
2018-09-14T09:10:44.433Z,15.17
2018-09-14T09:13:14.560Z,16.87
2018-09-14T09:15:44.045Z,14.40
2018-09-14T09:18:14.832Z,17.82
2018-09-14T09:20:44.327Z,15.53
2018-09-14T09:23:17.007Z,12.03
2018-09-14T09:25:49.443Z,13.53
2018-09-14T09:28:28.338Z,13.23
2018-09-14T09:31:06.170Z,10.95
2018-09-14T09:33:42.951Z,11.23
2018-09-14T09:36:17.297Z,13.60
2018-09-14T09:38:55.763Z,9.07
2018-09-14T09:41:26.344Z,8.73
2018-09-14T09:44:00.884Z,9.33
2018-09-14T09:46:30.177Z,12.07
2018-09-14T09:48:59.677Z,13.07
2018-09-14T09:51:35.049Z,10.57
2018-09-14T09:54:06.389Z,9.13
2018-09-14T09:56:36.542Z,9.77
2018-09-14T09:59:07.323Z,9.37
2018-09-14T10:03:51.890Z,8.47
2018-09-14T10:06:27.652Z,13.97
2018-09-14T10:09:05.346Z,10.90
2018-09-14T10:11:39.124Z,14.50
2018-09-14T10:14:13.090Z,9.30
2018-09-14T10:17:14.764Z,11.95
2018-09-14T10:19:56.776Z,9.20
2018-09-14T10:22:30.284Z,12.87
2018-09-14T10:25:01.417Z,9.50
2018-09-14T10:27:41.307Z,8.90
2018-09-14T10:30:13.373Z,11.80
2018-09-14T10:32:45.169Z,12.23
2018-09-14T10:35:29.317Z,10.43
2018-09-14T10:38:01.714Z,11.90
2018-09-14T10:40:35.104Z,11.37
2018-09-14T10:43:05.882Z,8.80
2018-09-14T10:45:37.195Z,10.07
2018-09-14T10:48:07.196Z,10.83
2018-09-14T10:50:37.963Z,8.90
2018-09-14T10:53:13.407Z,14.50
2018-09-14T10:55:47.654Z,9.93
2018-09-14T10:58:27.057Z,7.78
2018-09-14T11:00:57.379Z,7.67
2018-09-14T11:03:27.878Z,9.33
2018-09-14T11:06:08.229Z,6.77
2018-09-14T11:08:38.209Z,7.83
2018-09-14T11:11:09.022Z,8.97
2018-09-14T11:13:42.653Z,8.93
2018-09-14T11:16:13.265Z,9.37
2018-09-14T11:18:46.513Z,6.10
2018-09-14T11:21:15.720Z,7.83
2018-09-14T11:23:46.382Z,5.17
2018-09-14T11:26:16.661Z,9.17
2018-09-14T11:28:50.885Z,8.70
2018-09-14T11:31:30.832Z,6.23
2018-09-14T11:34:02.308Z,5.90
2018-09-14T11:36:32.260Z,6.67
2018-09-14T11:39:05.979Z,5.77
2018-09-14T11:41:36.500Z,5.10
2018-09-14T11:44:08.263Z,6.30
2018-09-14T11:46:37.697Z,6.47
2018-09-14T11:49:07.253Z,6.87
2018-09-14T11:51:37.652Z,5.97
2018-09-14T11:54:09.430Z,5.77
2018-09-14T11:56:40.276Z,6.77
2018-09-14T11:59:12.737Z,5.90
2018-09-14T12:01:45.159Z,6.17
2018-09-14T12:04:24.125Z,6.50
2018-09-14T12:06:54.747Z,6.10
2018-09-14T12:09:31.261Z,5.77
2018-09-14T12:12:01.816Z,7.07
2018-09-14T12:14:34.776Z,5.50
2018-09-14T12:17:05.390Z,6.23
2018-09-14T12:19:36.224Z,4.90
2018-09-14T12:22:06.918Z,9.50
2018-09-14T12:24:39.425Z,4.37
2018-09-14T12:27:11.605Z,6.63
2018-09-14T12:29:45.341Z,5.77
2018-09-14T12:32:15.556Z,6.43
2018-09-14T12:34:45.457Z,8.27
2018-09-14T12:37:15.223Z,4.23
2018-09-14T12:39:53.105Z,4.63
2018-09-14T12:42:24.503Z,5.10
2018-09-14T12:44:54.356Z,6.57
2018-09-14T12:47:24.384Z,5.53
2018-09-14T12:49:54.722Z,6.27
2018-09-14T12:52:24.723Z,6.83
2018-09-14T12:54:55.240Z,6.03
2018-09-14T12:57:26.810Z,6.43
2018-09-14T12:59:56.688Z,5.00
2018-09-14T13:02:28.653Z,6.37
2018-09-14T13:04:58.604Z,6.40
2018-09-14T13:07:29.607Z,5.43
2018-09-14T13:10:00.068Z,5.03
2018-09-14T13:12:29.836Z,5.37
2018-09-14T13:15:02.732Z,4.77
2018-09-14T13:17:32.173Z,6.07
2018-09-14T13:20:03.217Z,6.87
2018-09-14T13:22:33.378Z,5.67
2018-09-14T13:25:03.948Z,5.50
2018-09-14T13:27:35.841Z,5.97
2018-09-14T13:30:07.064Z,8.03
2018-09-14T13:32:41.496Z,5.47
2018-09-14T13:35:12.331Z,6.73
2018-09-14T13:37:42.849Z,5.50
2018-09-14T13:40:14.017Z,6.67
2018-09-14T13:42:47.514Z,4.57
2018-09-14T13:45:20.827Z,3.90
2018-09-14T13:47:51.878Z,8.27
2018-09-14T13:50:28.435Z,5.47
2018-09-14T13:52:58.033Z,3.03
2018-09-14T13:55:27.629Z,4.53
2018-09-14T13:57:57.792Z,5.80
2018-09-14T14:00:27.564Z,11.00
2018-09-14T14:02:58.456Z,4.83
2018-09-14T14:05:30.198Z,5.10
2018-09-14T14:08:04.802Z,3.53
2018-09-14T14:10:34.738Z,5.80
2018-09-14T14:13:05.288Z,5.77
2018-09-14T14:15:36.148Z,5.83
2018-09-14T14:18:05.824Z,5.87
2018-09-14T14:20:35.476Z,3.13
2018-09-14T14:23:05.076Z,3.70
2018-09-14T14:25:35.591Z,4.43
2018-09-14T14:28:06.849Z,3.63
2018-09-14T14:30:39.922Z,3.00
2018-09-14T14:33:10.207Z,4.07
2018-09-14T14:35:41.737Z,4.90
2018-09-14T14:38:17.574Z,5.70
2018-09-14T14:40:46.915Z,3.33
2018-09-14T14:43:16.176Z,6.83
2018-09-14T14:45:45.781Z,4.30
2018-09-14T14:48:15.189Z,7.03
2018-09-14T14:50:46.170Z,4.30
2018-09-14T14:53:17.494Z,6.00
2018-09-14T14:55:47.321Z,4.40
2018-09-14T14:58:18.874Z,6.67
2018-09-14T15:00:50.241Z,3.63
2018-09-14T15:03:21.238Z,5.13
2018-09-14T15:05:51.865Z,4.07
2018-09-14T15:08:22.482Z,4.87
2018-09-14T15:10:52.783Z,3.87
2018-09-14T15:13:22.408Z,5.23
2018-09-14T15:15:55.445Z,3.70
2018-09-14T15:18:25.212Z,4.07
2018-09-14T15:20:54.602Z,3.87
2018-09-14T15:23:26.897Z,4.50
2018-09-14T15:25:57.253Z,3.97
2018-09-14T15:28:29.434Z,3.77
2018-09-14T15:31:01.568Z,6.90
2018-09-14T15:33:33.832Z,5.90
2018-09-14T15:36:06.108Z,7.33
2018-09-14T15:38:37.503Z,3.23
2018-09-14T15:41:06.760Z,4.13
2018-09-14T15:43:42.359Z,6.13
2018-09-14T15:46:20.123Z,3.57
2018-09-14T15:48:54.536Z,4.30
2018-09-14T15:51:30.362Z,4.73
2018-09-14T15:54:01.848Z,5.27
2018-09-14T15:56:36.237Z,4.30
2018-09-14T16:01:51.914Z,3.97
2018-09-14T16:04:21.617Z,6.80
2018-09-14T16:06:53.818Z,6.87
2018-09-14T16:09:24.440Z,3.97
2018-09-14T16:11:57.212Z,4.40
2018-09-14T16:14:27.097Z,5.90
2018-09-14T16:17:00.325Z,4.40
2018-09-14T16:19:30.872Z,3.90
2018-09-14T16:22:01.642Z,4.23
2018-09-14T16:24:31.834Z,4.63
2018-09-14T16:27:01.294Z,4.17
2018-09-14T16:29:32.222Z,2.90
2018-09-14T16:32:01.789Z,5.23
2018-09-14T16:34:31.261Z,4.03
2018-09-14T16:37:01.696Z,3.13
2018-09-14T16:39:32.021Z,3.03
2018-09-14T16:42:02.521Z,3.27
2018-09-14T16:44:33.160Z,6.87
2018-09-14T16:47:05.765Z,4.90
2018-09-14T16:49:40.236Z,5.10
2018-09-14T16:52:09.469Z,3.43
2018-09-14T16:54:38.592Z,3.97
2018-09-14T16:57:07.864Z,4.47
2018-09-14T16:59:39.584Z,5.07
2018-09-14T17:02:12.230Z,4.67
2018-09-14T17:04:44.342Z,4.50
2018-09-14T17:07:16.424Z,5.50
2018-09-14T17:09:45.921Z,4.77
2018-09-14T17:12:16.180Z,3.13
2018-09-14T17:14:45.993Z,8.67
2018-09-14T17:17:15.309Z,8.13
2018-09-14T17:19:45.599Z,5.93
2018-09-14T17:22:19.224Z,7.63
2018-09-14T17:24:50.049Z,5.83
2018-09-14T17:27:24.888Z,5.03
2018-09-14T17:29:55.175Z,6.60
2018-09-14T17:32:25.500Z,3.97
2018-09-14T17:34:57.023Z,7.30
2018-09-14T17:37:28.648Z,5.13
2018-09-14T17:39:58.775Z,5.27
2018-09-14T17:42:29.277Z,6.00
2018-09-14T17:45:01.372Z,7.67
2018-09-14T17:47:37.236Z,7.77
2018-09-14T17:50:11.060Z,6.23
2018-09-14T17:52:42.363Z,5.10
2018-09-14T17:55:12.966Z,6.37
2018-09-14T17:57:43.542Z,5.27
2018-09-14T18:00:21.378Z,4.63
2018-09-14T18:02:50.537Z,3.77
2018-09-14T18:05:19.934Z,9.40
2018-09-14T18:07:49.637Z,3.43
2018-09-14T18:10:22.800Z,5.23
2018-09-14T18:12:54.179Z,3.70
2018-09-14T18:15:25.561Z,8.27
2018-09-14T18:17:57.515Z,4.97
2018-09-14T18:20:29.827Z,6.20
2018-09-14T18:23:00.736Z,4.87
2018-09-14T18:25:30.324Z,5.07
2018-09-14T18:28:00.434Z,5.90
2018-09-14T18:30:30.206Z,5.57
2018-09-14T18:32:59.341Z,3.67
2018-09-14T18:35:31.005Z,4.33
2018-09-14T18:38:01.236Z,3.87
2018-09-14T18:40:31.891Z,6.27
2018-09-14T18:43:02.160Z,4.67
2018-09-14T18:45:35.935Z,5.20
2018-09-14T18:48:10.053Z,4.57
2018-09-14T18:50:40.136Z,6.30
2018-09-14T18:53:10.022Z,6.40
2018-09-14T18:55:56.665Z,6.40
2018-09-14T18:58:30.008Z,6.03
2018-09-14T19:01:00.125Z,7.40
2018-09-14T19:03:31.524Z,4.43
2018-09-14T19:06:01.388Z,5.27
2018-09-14T19:08:32.888Z,4.33
2018-09-14T19:11:02.791Z,6.83
2018-09-14T19:13:36.574Z,5.73
2018-09-14T19:16:08.034Z,7.73
2018-09-14T19:18:39.267Z,5.90
2018-09-14T19:21:09.382Z,6.40
2018-09-14T19:23:42.136Z,5.70
2018-09-14T19:26:17.995Z,6.97
2018-09-14T19:28:49.826Z,4.83
2018-09-14T19:31:21.393Z,5.10
2018-09-14T19:34:01.986Z,6.63
2018-09-14T19:36:33.312Z,7.93
2018-09-14T19:39:03.259Z,6.07
2018-09-14T19:41:33.748Z,5.00
2018-09-14T19:44:05.965Z,5.03
2018-09-14T19:46:35.729Z,4.27
2018-09-14T19:49:05.442Z,4.97
2018-09-14T19:51:38.526Z,5.87
2018-09-14T19:54:09.785Z,5.63
2018-09-14T19:56:39.759Z,7.93
2018-09-14T19:59:10.423Z,6.27
2018-09-14T20:01:44.606Z,3.73
2018-09-14T20:04:14.252Z,4.87
2018-09-14T20:09:22.385Z,3.97
2018-09-14T20:11:52.419Z,5.37
2018-09-14T20:14:29.397Z,3.47
2018-09-14T20:17:00.149Z,6.67
2018-09-14T20:19:30.569Z,4.03
2018-09-14T20:22:04.623Z,7.90
2018-09-14T20:24:34.616Z,6.60
2018-09-14T20:27:11.220Z,6.73
2018-09-14T20:29:43.655Z,6.17
2018-09-14T20:32:13.455Z,7.60
2018-09-14T20:34:47.408Z,5.27
2018-09-14T20:37:20.425Z,4.80
2018-09-14T20:39:53.544Z,4.93
2018-09-14T20:42:24.849Z,3.20
2018-09-14T20:44:57.363Z,4.57
2018-09-14T20:47:27.894Z,4.07
2018-09-14T20:49:57.588Z,5.20
2018-09-14T20:52:28.596Z,6.30
2018-09-14T20:54:58.240Z,5.80
2018-09-14T20:57:27.557Z,5.83
2018-09-14T20:59:57.900Z,5.73
2018-09-14T21:02:28.435Z,6.10
2018-09-14T21:04:59.340Z,6.20
2018-09-14T21:07:31.516Z,3.50
2018-09-14T21:10:03.204Z,3.67
2018-09-14T21:12:32.564Z,5.03
2018-09-14T21:15:01.841Z,5.83
2018-09-14T21:17:33.667Z,5.07
2018-09-14T21:20:06.579Z,6.93
2018-09-14T21:22:36.275Z,5.53
2018-09-14T21:25:06.797Z,5.20
2018-09-14T21:27:38.554Z,5.23
2018-09-14T21:30:16.142Z,6.53
2018-09-14T21:32:47.750Z,4.60
2018-09-14T21:35:17.875Z,6.53
2018-09-14T21:37:50.552Z,5.10
2018-09-14T21:40:23.359Z,5.73
2018-09-14T21:43:11.443Z,6.63
2018-09-14T21:45:45.281Z,6.73
2018-09-14T21:48:17.646Z,4.83
2018-09-14T21:50:49.189Z,3.93
2018-09-14T21:53:19.026Z,5.50
2018-09-14T21:55:51.824Z,6.87
2018-09-14T21:58:21.898Z,5.70
2018-09-14T22:00:57.997Z,7.00
2018-09-14T22:03:31.724Z,5.90
2018-09-14T22:06:02.385Z,5.10
2018-09-14T22:08:31.558Z,8.13
2018-09-14T22:11:01.621Z,4.23
2018-09-14T22:13:32.485Z,6.30
2018-09-14T22:16:01.737Z,5.13
2018-09-14T22:18:31.287Z,7.77
2018-09-14T22:21:04.192Z,5.50
2018-09-14T22:23:36.236Z,5.27
2018-09-14T22:26:06.376Z,5.90
2018-09-14T22:28:36.129Z,6.73
2018-09-14T22:31:06.199Z,5.83
2018-09-14T22:33:35.486Z,5.77
2018-09-14T22:36:05.374Z,6.37
2018-09-14T22:38:35.192Z,7.60
2018-09-14T22:41:04.504Z,6.13
2018-09-14T22:43:33.640Z,7.97
2018-09-14T22:46:03.197Z,4.23
2018-09-14T22:48:32.668Z,6.07
2018-09-14T22:51:02.275Z,6.20
2018-09-14T22:53:34.476Z,4.03
2018-09-14T22:56:07.346Z,6.73
2018-09-14T22:58:37.469Z,5.47
2018-09-14T23:01:12.309Z,7.23
2018-09-14T23:03:46.064Z,4.07
2018-09-14T23:06:18.462Z,5.27
2018-09-14T23:08:47.621Z,4.93
2018-09-14T23:11:20.359Z,5.33
2018-09-14T23:13:49.565Z,5.97
2018-09-14T23:16:19.834Z,6.47
2018-09-14T23:18:50.522Z,4.67
2018-09-14T23:21:20.914Z,7.77
2018-09-14T23:27:27.031Z,7.13
2018-09-14T23:29:56.354Z,6.47
2018-09-14T23:32:25.780Z,4.30
2018-09-14T23:34:55.461Z,5.43
2018-09-14T23:37:26.457Z,8.80
2018-09-14T23:39:56.032Z,6.17
2018-09-14T23:43:55.676Z,5.77
2018-09-14T23:46:24.781Z,7.67
2018-09-14T23:48:57.432Z,8.07
2018-09-14T23:51:27.887Z,6.80
2018-09-14T23:53:57.536Z,6.10
2018-09-14T23:56:26.620Z,5.60
2018-09-14T23:58:56.645Z,4.87
